Time;durP1;ratioP1;P1;durP2;ratioP2;P2;SDS_P1;SDS_P2;PMS_P1;PMS_P2;Temp;Humidity;BMP_temperature;BMP_pressure;BME280_temperature;BME280_humidity;BME280_pressure;Samples;Min_cycle;Max_cycle;Signal;HPM_P1;HPM_P2
2024/01/13 00:00:19;;;;;;;0.80;0.80;;;2.90;99.90;;;;;;5119838;28;20047;-82
2024/01/13 00:02:45;;;;;;;0.57;0.57;;;2.80;99.90;;;;;;5119698;28;20047;-81
2024/01/13 00:05:11;;;;;;;1.15;1.15;;;2.80;99.90;;;;;;5115477;28;20060;-80
2024/01/13 00:07:36;;;;;;;0.82;0.82;;;2.80;99.90;;;;;;5095497;28;20050;-83
2024/01/13 00:10:02;;;;;;;0.60;0.60;;;4.00;99.90;;;;;;5094613;28;20047;-82
2024/01/13 00:12:28;;;;;;;0.55;0.55;;;2.80;99.90;;;;;;5096818;27;20039;-84
2024/01/13 00:14:54;;;;;;;0.60;0.60;;;2.80;99.90;;;;;;5101652;28;20446;-84
2024/01/13 00:17:20;;;;;;;0.60;0.60;;;2.80;99.90;;;;;;5078200;28;20100;-84
2024/01/13 00:19:46;;;;;;;0.52;0.52;;;2.80;99.90;;;;;;5078078;28;20555;-85
2024/01/13 00:22:12;;;;;;;0.70;0.70;;;2.80;99.90;;;;;;5094823;28;20118;-80
2024/01/13 00:24:38;;;;;;;0.60;0.60;;;2.90;99.90;;;;;;5113783;27;20132;-83
2024/01/13 00:27:04;;;;;;;0.63;0.63;;;2.80;99.90;;;;;;5101420;28;20550;-83
2024/01/13 00:29:30;;;;;;;0.70;0.70;;;3.20;99.90;;;;;;5111804;28;20757;-83
2024/01/13 00:31:57;;;;;;;0.70;0.70;;;2.80;99.90;;;;;;5081618;27;20027;-79
2024/01/13 00:34:23;;;;;;;0.60;0.60;;;2.80;99.90;;;;;;5125249;27;20468;-82
2024/01/13 00:36:49;;;;;;;0.70;0.70;;;2.80;99.90;;;;;;5096796;27;20059;-80
2024/01/13 00:39:14;;;;;;;0.63;0.63;;;2.90;99.90;;;;;;5085350;28;20108;-81
2024/01/13 00:41:40;;;;;;;0.70;0.70;;;3.00;99.90;;;;;;5113193;28;20071;-84
2024/01/13 00:44:06;;;;;;;0.55;0.55;;;2.90;99.90;;;;;;5095038;28;20104;-82
2024/01/13 00:46:32;;;;;;;0.70;0.70;;;2.90;99.90;;;;;;5111500;28;20496;-80
2024/01/13 00:48:57;;;;;;;0.70;0.70;;;2.90;99.90;;;;;;5112099;28;20040;-80
2024/01/13 00:51:23;;;;;;;1.15;1.15;;;2.90;99.90;;;;;;5111618;28;20042;-79
2024/01/13 00:53:48;;;;;;;0.60;0.60;;;2.90;99.90;;;;;;5094575;28;20039;-80
2024/01/13 00:56:14;;;;;;;0.70;0.70;;;3.90;99.90;;;;;;5111447;28;20043;-82
2024/01/13 00:58:40;;;;;;;0.75;0.75;;;3.00;99.90;;;;;;5111147;28;20035;-82
2024/01/13 01:01:06;;;;;;;0.70;0.70;;;2.90;99.90;;;;;;5110839;28;20079;-82
2024/01/13 01:03:31;;;;;;;0.65;0.65;;;3.00;99.90;;;;;;5077923;28;20039;-80
2024/01/13 01:05:58;;;;;;;0.60;0.60;;;3.10;99.90;;;;;;5111221;28;20046;-84
2024/01/13 01:08:24;;;;;;;0.60;0.60;;;3.00;99.90;;;;;;5110818;28;20067;-85
2024/01/13 01:10:49;;;;;;;0.60;0.60;;;3.60;99.90;;;;;;5093529;28;20191;-82
2024/01/13 01:13:15;;;;;;;1.60;0.90;;;4.50;99.90;;;;;;5093732;28;20054;-78
2024/01/13 01:15:41;;;;;;;0.73;0.73;;;3.00;99.90;;;;;;5073909;28;20051;-85
2024/01/13 01:18:07;;;;;;;0.85;0.85;;;3.00;99.90;;;;;;5089543;28;20054;-83
2024/01/13 01:20:33;;;;;;;0.70;0.70;;;3.00;99.90;;;;;;5111198;28;20076;-86
2024/01/13 01:22:58;;;;;;;0.85;0.85;;;2.90;99.90;;;;;;5111683;28;20134;-83
2024/01/13 01:25:24;;;;;;;0.60;0.60;;;2.90;99.90;;;;;;5112669;28;20040;-82
2024/01/13 01:27:50;;;;;;;0.60;0.60;;;2.90;99.90;;;;;;5098867;27;20031;-83
2024/01/13 01:30:15;;;;;;;0.60;0.60;;;2.90;99.90;;;;;;5118017;27;20476;-85
2024/01/13 01:32:41;;;;;;;0.70;0.70;;;2.90;99.90;;;;;;5111430;28;20142;-80
2024/01/13 01:35:07;;;;;;;0.70;0.70;;;3.70;99.90;;;;;;5096113;28;20036;-81
2024/01/13 01:37:33;;;;;;;0.60;0.60;;;2.90;99.90;;;;;;5097703;28;20051;-82
2024/01/13 01:39:59;;;;;;;0.70;0.70;;;2.80;99.90;;;;;;5114179;27;20047;-83
2024/01/13 01:42:25;;;;;;;0.60;0.60;;;2.80;99.90;;;;;;5112067;28;20404;-81
2024/01/13 01:44:50;;;;;;;0.80;0.80;;;2.70;99.90;;;;;;5115054;28;20412;-82
2024/01/13 01:47:19;;;;;;;0.80;0.80;;;2.70;99.90;;;;;;5116309;28;20122;-82
2024/01/13 01:49:46;;;;;;;0.60;0.60;;;2.70;99.90;;;;;;5118935;28;20476;-82
2024/01/13 01:52:13;;;;;;;0.57;0.57;;;3.20;99.90;;;;;;5120159;28;20043;-79
2024/01/13 01:54:39;;;;;;;0.90;0.90;;;2.70;99.90;;;;;;5110752;28;20036;-81
2024/01/13 01:57:06;;;;;;;0.63;0.63;;;2.70;99.90;;;;;;5110579;28;20028;-83
2024/01/13 01:59:31;;;;;;;0.60;0.60;;;2.70;99.90;;;;;;5056206;28;20093;-85
2024/01/13 02:01:59;;;;;;;0.70;0.70;;;2.70;99.90;;;;;;5098219;28;20449;-82
2024/01/13 02:04:25;;;;;;;0.50;0.50;;;3.80;99.90;;;;;;5113679;28;20039;-81
2024/01/13 02:06:52;;;;;;;0.65;0.65;;;2.80;99.90;;;;;;5125051;28;20047;-85
2024/01/13 02:09:18;;;;;;;0.70;0.70;;;3.70;99.90;;;;;;5113019;28;20043;-81
2024/01/13 02:11:45;;;;;;;0.70;0.70;;;3.00;99.90;;;;;;5112619;28;20050;-82
2024/01/13 02:14:11;;;;;;;0.60;0.60;;;2.90;99.90;;;;;;5114288;28;20047;-83
2024/01/13 02:16:37;;;;;;;0.70;0.70;;;2.90;99.90;;;;;;5111330;28;20073;-86
2024/01/13 02:19:02;;;;;;;0.63;0.63;;;3.10;99.90;;;;;;5111012;28;20048;-82
2024/01/13 02:21:28;;;;;;;0.52;0.52;;;2.80;99.90;;;;;;5112110;27;20043;-80
2024/01/13 02:23:54;;;;;;;0.95;0.95;;;3.30;99.90;;;;;;5117973;27;20073;-84
2024/01/13 02:26:19;;;;;;;0.70;0.70;;;2.80;99.90;;;;;;5101212;28;20039;-85
2024/01/13 02:28:45;;;;;;;0.55;0.55;;;3.30;99.90;;;;;;5116304;27;20423;-83
2024/01/13 02:31:15;;;;;;;0.63;0.63;;;2.80;99.90;;;;;;5117920;27;20043;-80
2024/01/13 02:33:40;;;;;;;0.60;0.60;;;2.70;99.90;;;;;;5099410;28;20180;-81
2024/01/13 02:36:06;;;;;;;2.20;0.93;;;3.50;99.90;;;;;;5097425;28;20071;-81
2024/01/13 02:38:32;;;;;;;0.70;0.70;;;2.80;99.90;;;;;;5097353;28;20050;-83
2024/01/13 02:40:57;;;;;;;0.60;0.60;;;2.80;99.90;;;;;;5099613;27;20048;-82
2024/01/13 02:43:23;;;;;;;0.65;0.65;;;2.80;99.90;;;;;;5091285;28;20054;-82
2024/01/13 02:45:49;;;;;;;0.63;0.63;;;2.70;99.90;;;;;;5111420;28;20062;-81
2024/01/13 02:48:17;;;;;;;0.70;0.70;;;2.90;99.90;;;;;;5104669;28;20047;-84
2024/01/13 02:51:02;;;;;;;2.55;2.45;;;3.50;99.90;;;;;;5114113;28;20036;-83
2024/01/13 02:53:28;;;;;;;0.60;0.60;;;2.80;99.90;;;;;;5106245;28;20031;-82
2024/01/13 02:55:53;;;;;;;;;;;2.80;99.90;;;;;;5097023;28;20039;-80
2024/01/13 02:58:19;;;;;;;0.70;0.70;;;3.80;99.90;;;;;;5116659;27;19941;-81
2024/01/13 03:00:45;;;;;;;0.70;0.70;;;3.70;99.90;;;;;;5118747;27;20122;-82
2024/01/13 03:03:11;;;;;;;0.70;0.70;;;2.80;99.90;;;;;;5112994;28;20052;-79
2024/01/13 03:05:37;;;;;;;;;;;2.80;99.90;;;;;;5113782;28;20443;-82
2024/01/13 03:08:03;;;;;;;0.70;0.70;;;2.90;99.90;;;;;;5096940;28;20272;-84
2024/01/13 03:10:31;;;;;;;0.60;0.60;;;2.80;99.90;;;;;;5099200;27;20167;-79
2024/01/13 03:12:57;;;;;;;0.60;0.60;;;2.90;99.90;;;;;;5100030;28;20039;-79
2024/01/13 03:15:22;;;;;;;0.90;0.73;;;2.90;99.90;;;;;;5080721;27;20064;-80
2024/01/13 03:17:48;;;;;;;0.73;0.73;;;2.80;99.90;;;;;;5120488;27;20118;-80
2024/01/13 03:20:14;;;;;;;0.77;0.77;;;2.90;99.90;;;;;;5113461;28;20043;-80
2024/01/13 03:22:40;;;;;;;0.60;0.60;;;2.90;99.90;;;;;;5125784;27;20035;-83
2024/01/13 03:25:06;;;;;;;0.60;0.60;;;3.30;99.90;;;;;;5102221;28;20524;-80
2024/01/13 03:27:32;;;;;;;0.70;0.70;;;2.80;99.90;;;;;;5076306;27;20126;-81
2024/01/13 03:29:57;;;;;;;0.50;0.50;;;2.90;99.90;;;;;;5103778;28;20119;-83
2024/01/13 03:32:23;;;;;;;0.60;0.60;;;2.80;99.90;;;;;;5096025;28;20042;-80
2024/01/13 03:34:49;;;;;;;0.60;0.60;;;2.80;99.90;;;;;;5086870;27;20716;-83
2024/01/13 03:37:14;;;;;;;0.60;0.60;;;2.90;99.90;;;;;;5096098;28;20035;-79
2024/01/13 03:39:40;;;;;;;0.63;0.63;;;2.80;99.90;;;;;;5095963;28;20051;-82
2024/01/13 03:42:06;;;;;;;0.70;0.70;;;2.90;99.90;;;;;;5081431;28;20081;-79
2024/01/13 03:44:32;;;;;;;0.63;0.63;;;2.80;99.90;;;;;;5097470;28;20104;-80
2024/01/13 03:46:58;;;;;;;0.68;0.68;;;2.80;99.90;;;;;;5097478;27;20435;-82
2024/01/13 03:49:23;;;;;;;0.65;0.65;;;2.80;99.90;;;;;;5112075;27;20039;-83
2024/01/13 03:51:49;;;;;;;1.38;1.23;;;2.80;99.90;;;;;;5080146;27;20040;-82
2024/01/13 03:54:15;;;;;;;0.60;0.60;;;2.80;99.90;;;;;;5099384;27;20082;-81
2024/01/13 03:56:40;;;;;;;0.65;0.65;;;2.80;99.90;;;;;;5114976;27;20039;-84
2024/01/13 03:59:06;;;;;;;0.73;0.73;;;2.80;99.90;;;;;;5120065;27;20088;-79
2024/01/13 04:01:32;;;;;;;0.93;0.93;;;4.10;99.90;;;;;;5095032;28;20047;-83
2024/01/13 04:03:58;;;;;;;0.63;0.63;;;2.80;99.90;;;;;;5096290;27;20043;-82
2024/01/13 04:06:24;;;;;;;0.50;0.50;;;2.80;99.90;;;;;;5132750;27;20039;-83
2024/01/13 04:08:49;;;;;;;0.70;0.70;;;2.80;99.90;;;;;;5124743;27;20039;-84
2024/01/13 04:11:15;;;;;;;0.88;0.85;;;2.80;99.90;;;;;;5111693;28;20055;-81
2024/01/13 04:13:41;;;;;;;0.50;0.50;;;2.80;99.90;;;;;;5111480;28;20069;-81
2024/01/13 04:16:07;;;;;;;0.70;0.70;;;2.80;99.90;;;;;;5078336;28;20036;-83
2024/01/13 04:18:33;;;;;;;0.68;0.68;;;2.70;99.90;;;;;;5095334;28;20039;-82
2024/01/13 04:20:59;;;;;;;0.73;0.73;;;2.80;99.90;;;;;;5092243;28;20067;-79
2024/01/13 04:23:25;;;;;;;0.70;0.70;;;2.80;99.90;;;;;;5080008;27;20044;-80
2024/01/13 04:25:50;;;;;;;0.80;0.80;;;2.80;99.90;;;;;;5117787;27;20125;-80
2024/01/13 04:28:16;;;;;;;0.60;0.60;;;2.80;99.90;;;;;;5112047;28;20480;-80
2024/01/13 04:30:42;;;;;;;0.68;0.68;;;2.80;99.90;;;;;;5095285;28;20039;-85
2024/01/13 04:33:08;;;;;;;0.60;0.60;;;3.00;99.90;;;;;;5095568;28;20403;-83
2024/01/13 04:35:33;;;;;;;0.77;0.77;;;2.80;99.90;;;;;;5097391;27;20127;-81
2024/01/13 04:38:00;;;;;;;0.60;0.60;;;3.20;99.90;;;;;;5128487;27;20039;-81
2024/01/13 04:40:25;;;;;;;0.65;0.65;;;2.80;99.90;;;;;;5094358;28;20155;-84
2024/01/13 04:42:51;;;;;;;0.70;0.70;;;3.50;99.90;;;;;;5096570;27;20451;-79
2024/01/13 04:45:17;;;;;;;0.70;0.70;;;2.80;99.90;;;;;;5110790;28;20492;-83
2024/01/13 04:47:43;;;;;;;0.70;0.70;;;2.90;99.90;;;;;;5073961;28;20040;-80
2024/01/13 04:50:09;;;;;;;0.98;0.98;;;2.80;99.90;;;;;;5104129;28;20039;-80
2024/01/13 04:52:36;;;;;;;0.50;0.50;;;2.80;99.90;;;;;;5097383;28;20096;-81
2024/01/13 04:55:02;;;;;;;0.60;0.60;;;2.80;99.90;;;;;;5114883;27;20043;-82
2024/01/13 04:57:27;;;;;;;0.65;0.65;;;2.90;99.90;;;;;;5125639;27;20036;-82
2024/01/13 04:59:53;;;;;;;0.70;0.70;;;2.90;99.90;;;;;;5093902;28;20043;-83
2024/01/13 05:02:19;;;;;;;0.63;0.63;;;2.90;99.90;;;;;;5111492;28;20050;-83
2024/01/13 05:04:44;;;;;;;0.63;0.63;;;3.30;99.90;;;;;;5077030;28;20484;-78
2024/01/13 05:07:10;;;;;;;0.65;0.65;;;2.90;99.90;;;;;;5111323;28;20038;-82
2024/01/13 05:09:36;;;;;;;0.55;0.55;;;2.90;99.90;;;;;;5094009;28;20042;-80
2024/01/13 05:12:02;;;;;;;0.57;0.57;;;2.80;99.90;;;;;;5111144;28;20060;-85
2024/01/13 05:14:28;;;;;;;0.90;0.90;;;2.80;99.90;;;;;;5111552;28;20097;-79
2024/01/13 05:16:54;;;;;;;0.70;0.70;;;2.80;99.90;;;;;;5061474;28;20396;-83
2024/01/13 05:19:20;;;;;;;0.60;0.60;;;2.80;99.90;;;;;;5095972;27;20515;-79
2024/01/13 05:21:45;;;;;;;;;;;2.80;99.90;;;;;;5088832;28;20521;-82
2024/01/13 05:24:12;;;;;;;1.75;1.13;;;3.20;99.90;;;;;;5107346;28;19975;-83
2024/01/13 05:26:38;;;;;;;0.88;0.88;;;2.80;99.90;;;;;;5093588;28;20044;-83
2024/01/13 05:29:04;;;;;;;0.60;0.60;;;2.80;99.90;;;;;;5109971;28;20539;-81
2024/01/13 05:31:30;;;;;;;0.60;0.60;;;2.90;99.90;;;;;;5110656;28;20122;-81
2024/01/13 05:33:55;;;;;;;0.60;0.60;;;2.80;99.90;;;;;;5110240;28;20396;-82
2024/01/13 05:36:22;;;;;;;0.90;0.90;;;3.80;99.90;;;;;;5094140;28;20052;-83
2024/01/13 05:38:48;;;;;;;0.70;0.70;;;2.80;99.90;;;;;;5094492;28;20090;-83
2024/01/13 05:41:14;;;;;;;0.60;0.60;;;2.80;99.90;;;;;;5093742;28;20491;-82
2024/01/13 05:43:40;;;;;;;0.70;0.70;;;2.90;99.90;;;;;;5111870;28;20483;-81
2024/01/13 05:46:06;;;;;;;0.65;0.65;;;2.90;99.90;;;;;;5077866;28;20085;-82
2024/01/13 05:48:31;;;;;;;0.60;0.60;;;2.90;99.90;;;;;;5077333;28;20093;-82
2024/01/13 05:50:57;;;;;;;0.60;0.60;;;2.80;99.90;;;;;;5113666;28;20039;-82
2024/01/13 05:53:23;;;;;;;;;;;2.90;99.90;;;;;;5125347;28;20452;-79
2024/01/13 05:55:49;;;;;;;0.50;0.50;;;2.90;99.90;;;;;;5094332;28;19916;-82
2024/01/13 05:58:14;;;;;;;0.60;0.60;;;3.20;99.90;;;;;;5105217;28;20043;-81
2024/01/13 06:00:40;;;;;;;0.57;0.57;;;3.80;99.90;;;;;;5125119;27;20043;-79
2024/01/13 06:03:06;;;;;;;0.70;0.70;;;2.90;99.90;;;;;;5081569;27;20044;-80
2024/01/13 06:05:31;;;;;;;0.60;0.60;;;2.90;99.90;;;;;;5103541;28;20144;-81
2024/01/13 06:07:57;;;;;;;0.60;0.60;;;4.20;99.90;;;;;;5114363;28;20115;-80
2024/01/13 06:10:23;;;;;;;0.70;0.70;;;3.00;99.90;;;;;;5097401;28;20059;-80
2024/01/13 06:12:49;;;;;;;0.60;0.60;;;2.80;99.90;;;;;;5097005;28;20035;-80
2024/01/13 06:15:15;;;;;;;0.50;0.50;;;2.90;99.90;;;;;;5097036;28;20059;-83
2024/01/13 06:17:41;;;;;;;;;;;2.80;99.90;;;;;;5114767;28;20070;-82
2024/01/13 06:20:08;;;;;;;0.50;0.50;;;2.90;99.90;;;;;;5076368;28;20361;-82
2024/01/13 06:22:34;;;;;;;0.50;0.50;;;2.90;99.90;;;;;;5122696;27;20047;-81
2024/01/13 06:25:00;;;;;;;0.60;0.60;;;3.30;99.90;;;;;;5076163;28;20711;-80
2024/01/13 06:27:25;;;;;;;0.82;0.82;;;2.80;99.90;;;;;;5077693;28;20044;-83
2024/01/13 06:29:54;;;;;;;0.60;0.60;;;2.90;99.90;;;;;;5095647;27;20042;-79
2024/01/13 06:32:20;;;;;;;0.57;0.57;;;2.80;99.90;;;;;;5111802;28;20043;-82
2024/01/13 06:34:46;;;;;;;;;;;3.00;99.90;;;;;;5087809;28;20036;-80
2024/01/13 06:37:12;;;;;;;0.57;0.57;;;2.80;99.90;;;;;;5099611;28;20020;-81
2024/01/13 06:39:37;;;;;;;0.70;0.70;;;2.80;99.90;;;;;;5096595;28;20396;-82
2024/01/13 06:42:06;;;;;;;0.60;0.60;;;2.80;99.90;;;;;;5096809;28;20051;-79
2024/01/13 06:44:35;;;;;;;0.50;0.50;;;2.90;99.90;;;;;;5097267;27;20039;-84
2024/01/13 06:47:02;;;;;;;0.52;0.52;;;4.20;99.90;;;;;;5134827;27;20051;-79
2024/01/13 06:49:28;;;;;;;0.57;0.57;;;2.90;99.90;;;;;;5109898;28;20035;-81
2024/01/13 06:51:54;;;;;;;0.57;0.57;;;3.00;99.90;;;;;;5116047;28;20108;-80
2024/01/13 06:54:19;;;;;;;0.57;0.57;;;3.00;99.90;;;;;;5096612;28;20472;-80
2024/01/13 06:56:46;;;;;;;0.60;0.60;;;3.00;99.90;;;;;;5114221;27;20063;-84
2024/01/13 06:59:14;;;;;;;0.70;0.70;;;3.20;99.90;;;;;;5131020;27;20395;-82
2024/01/13 07:01:40;;;;;;;0.60;0.60;;;2.90;99.90;;;;;;5114410;28;20476;-79
2024/01/13 07:04:06;;;;;;;0.63;0.63;;;3.00;99.90;;;;;;5115476;27;20064;-81
2024/01/13 07:06:32;;;;;;;;;;;3.00;99.90;;;;;;5123190;27;20070;-84
2024/01/13 07:08:57;;;;;;;0.50;0.50;;;3.00;99.90;;;;;;5096791;28;19920;-83
2024/01/13 07:11:24;;;;;;;3.15;1.48;;;4.30;99.90;;;;;;5082699;28;20063;-80
2024/01/13 07:13:49;;;;;;;;;;;3.00;99.90;;;;;;5096702;28;20044;-84
2024/01/13 07:16:15;;;;;;;0.60;0.60;;;3.00;99.90;;;;;;5115009;27;19916;-81
2024/01/13 07:18:41;;;;;;;0.55;0.55;;;3.00;99.90;;;;;;5091220;28;20055;-80
2024/01/13 07:21:07;;;;;;;0.70;0.70;;;3.00;99.90;;;;;;5110933;27;20042;-82
2024/01/13 07:23:33;;;;;;;0.55;0.55;;;3.00;99.90;;;;;;5114389;28;20047;-80
2024/01/13 07:26:00;;;;;;;0.60;0.60;;;3.00;99.90;;;;;;5078511;28;20048;-82
2024/01/13 07:28:26;;;;;;;0.60;0.60;;;3.00;99.90;;;;;;5096811;27;20058;-79
2024/01/13 07:30:51;;;;;;;0.50;0.50;;;3.10;99.90;;;;;;5134016;27;20091;-81
2024/01/13 07:33:17;;;;;;;0.60;0.60;;;3.60;99.90;;;;;;5108285;28;20146;-80
2024/01/13 07:35:43;;;;;;;0.70;0.70;;;3.00;99.90;;;;;;5113078;28;20394;-79
2024/01/13 07:38:09;;;;;;;0.70;0.70;;;3.00;99.90;;;;;;5113172;28;20066;-82
2024/01/13 07:40:35;;;;;;;0.60;0.60;;;3.80;99.90;;;;;;5097100;27;20055;-79
2024/01/13 07:43:01;;;;;;;0.40;0.40;;;3.60;99.90;;;;;;5103306;28;20043;-80
2024/01/13 07:45:27;;;;;;;0.70;0.70;;;3.10;99.90;;;;;;5095417;28;20039;-84
2024/01/13 07:47:52;;;;;;;;;;;3.10;99.90;;;;;;5079168;28;20472;-82
2024/01/13 07:50:18;;;;;;;0.80;0.80;;;3.10;99.90;;;;;;5095352;28;19942;-80
2024/01/13 07:52:44;;;;;;;0.60;0.60;;;3.70;99.90;;;;;;5113552;27;20510;-83
2024/01/13 07:55:10;;;;;;;0.50;0.50;;;3.10;99.90;;;;;;5083279;28;20481;-80
2024/01/13 07:57:36;;;;;;;;;;;3.10;99.90;;;;;;5100153;28;20046;-80
2024/01/13 08:00:02;;;;;;;0.63;0.63;;;3.10;99.90;;;;;;5112499;28;19915;-83
2024/01/13 08:02:28;;;;;;;0.80;0.80;;;3.10;99.90;;;;;;5113731;28;20066;-80
2024/01/13 08:04:54;;;;;;;1.40;1.30;;;3.10;99.90;;;;;;5097010;28;20039;-82
2024/01/13 08:07:23;;;;;;;1.05;1.00;;;3.50;99.90;;;;;;5076857;28;20028;-80
2024/01/13 08:09:49;;;;;;;0.77;0.77;;;3.10;99.90;;;;;;5093474;28;20038;-81
2024/01/13 08:12:15;;;;;;;;;;;3.30;99.90;;;;;;5095014;28;20040;-83
2024/01/13 08:14:40;;;;;;;0.60;0.60;;;3.10;99.90;;;;;;5112057;28;19973;-80
2024/01/13 08:17:07;;;;;;;3.20;1.83;;;3.10;99.90;;;;;;5094956;28;20046;-79
2024/01/13 08:19:33;;;;;;;0.70;0.70;;;3.10;99.90;;;;;;5110580;28;20043;-82
2024/01/13 08:21:58;;;;;;;0.70;0.70;;;3.10;99.90;;;;;;5074518;28;20435;-81
2024/01/13 08:24:24;;;;;;;0.55;0.55;;;3.20;99.90;;;;;;5111727;27;20044;-81
2024/01/13 08:26:50;;;;;;;0.80;0.80;;;3.10;99.90;;;;;;5100736;28;20142;-81
2024/01/13 08:29:16;;;;;;;1.00;1.00;;;3.10;99.90;;;;;;5094328;28;20039;-79
2024/01/13 08:31:44;;;;;;;1.55;1.50;;;3.10;99.90;;;;;;5104057;28;20042;-79
2024/01/13 08:34:10;;;;;;;1.23;1.23;;;3.10;99.90;;;;;;5095345;28;20124;-82
2024/01/13 08:36:36;;;;;;;0.68;0.68;;;3.10;99.90;;;;;;5113484;27;20096;-83
2024/01/13 08:39:02;;;;;;;0.60;0.60;;;3.10;99.90;;;;;;5098024;27;20520;-79
2024/01/13 08:41:27;;;;;;;1.45;1.35;;;3.10;99.90;;;;;;5114919;27;20038;-83
2024/01/13 08:43:53;;;;;;;1.60;1.55;;;3.30;99.90;;;;;;5067713;28;20039;-85
2024/01/13 08:46:19;;;;;;;0.70;0.70;;;3.20;99.90;;;;;;5094292;28;20123;-79
2024/01/13 08:48:45;;;;;;;0.82;0.82;;;3.20;99.90;;;;;;5111619;28;20031;-82
2024/01/13 08:51:10;;;;;;;1.23;1.23;;;4.00;99.90;;;;;;5094663;28;20408;-80
2024/01/13 08:53:36;;;;;;;2.60;2.40;;;3.20;99.90;;;;;;5090082;28;20185;-80
2024/01/13 08:56:02;;;;;;;10.38;1.75;;;3.30;99.90;;;;;;5114754;27;20524;-87
2024/01/13 08:58:30;;;;;;;0.60;0.60;;;3.20;99.90;;;;;;5089188;27;20472;-79
2024/01/13 09:00:56;;;;;;;2.83;2.67;;;3.30;99.90;;;;;;5084523;28;20048;-82
2024/01/13 09:03:22;;;;;;;2.38;1.13;;;3.30;99.90;;;;;;5100275;27;20104;-79
2024/01/13 09:05:48;;;;;;;1.55;0.98;;;3.60;99.90;;;;;;5098077;28;20051;-81
2024/01/13 09:08:13;;;;;;;0.70;0.70;;;3.30;99.90;;;;;;5114453;27;20043;-84
2024/01/13 09:10:41;;;;;;;2.33;1.88;;;3.30;99.90;;;;;;5125407;27;20047;-79
2024/01/13 09:13:06;;;;;;;1.95;1.85;;;3.30;99.90;;;;;;5112513;27;20117;-83
2024/01/13 09:15:32;;;;;;;0.77;0.77;;;3.30;99.90;;;;;;5101254;28;20130;-82
2024/01/13 09:17:58;;;;;;;1.85;1.23;;;3.30;99.90;;;;;;5128815;27;20510;-81
2024/01/13 09:20:24;;;;;;;0.60;0.60;;;3.30;99.90;;;;;;5112659;27;20410;-81
2024/01/13 09:22:50;;;;;;;;;;;3.20;99.90;;;;;;5112627;28;20046;-80
2024/01/13 09:25:15;;;;;;;1.17;1.17;;;3.20;99.90;;;;;;5081192;27;19919;-83
2024/01/13 09:27:41;;;;;;;1.15;1.15;;;3.30;99.90;;;;;;5132167;27;20436;-84
2024/01/13 09:30:07;;;;;;;1.88;1.77;;;3.30;99.90;;;;;;5106932;28;20079;-79
2024/01/13 09:32:33;;;;;;;;;;;3.30;99.90;;;;;;5095768;28;20039;-84
2024/01/13 09:35:02;;;;;;;1.17;0.95;;;3.30;99.90;;;;;;5104624;28;19923;-81
2024/01/13 09:37:27;;;;;;;0.80;0.80;;;3.30;99.90;;;;;;5110762;28;20043;-81
2024/01/13 09:39:53;;;;;;;1.50;1.45;;;3.90;99.90;;;;;;5118613;27;20039;-82
2024/01/13 09:42:40;;;;;;;1.35;1.30;;;3.50;99.90;;;;;;5093596;28;20043;-80
2024/01/13 09:45:09;;;;;;;1.13;1.13;;;3.30;99.90;;;;;;5110494;28;20044;-80
2024/01/13 09:47:35;;;;;;;1.42;1.30;;;3.20;99.90;;;;;;5110485;28;20090;-84
2024/01/13 09:50:01;;;;;;;2.67;2.50;;;3.30;99.90;;;;;;5093902;28;20075;-82
2024/01/13 09:52:27;;;;;;;1.85;1.45;;;3.90;99.90;;;;;;5110644;28;20498;-80
2024/01/13 09:54:59;;;;;;;2.83;2.63;;;4.00;99.90;;;;;;5111597;28;20036;-79
2024/01/13 09:57:25;;;;;;;0.70;0.70;;;3.30;99.90;;;;;;5093789;28;20098;-82
2024/01/13 09:59:51;;;;;;;2.30;2.10;;;3.30;99.90;;;;;;5094916;28;20035;-84
2024/01/13 10:02:20;;;;;;;1.73;1.63;;;3.30;99.90;;;;;;5123196;28;20838;-82
2024/01/13 10:04:46;;;;;;;2.25;1.67;;;3.30;99.90;;;;;;5084957;28;20051;-80
2024/01/13 10:07:11;;;;;;;1.20;1.17;;;3.30;99.90;;;;;;5104520;28;20046;-85
2024/01/13 10:09:41;;;;;;;5.13;2.35;;;3.30;99.90;;;;;;5059752;28;20703;-83
2024/01/13 10:12:07;;;;;;;1.27;1.20;;;3.30;99.90;;;;;;5093230;28;20054;-83
2024/01/13 10:14:40;;;;;;;2.92;2.65;;;3.40;99.90;;;;;;5093591;28;20038;-80
2024/01/13 10:17:06;;;;;;;0.82;0.82;;;3.40;99.90;;;;;;5093664;28;20096;-80
2024/01/13 10:19:38;;;;;;;0.73;0.73;;;3.40;99.90;;;;;;5094299;28;20134;-83
2024/01/13 10:22:05;;;;;;;2.17;1.20;;;3.60;99.90;;;;;;5113707;28;20051;-80
2024/01/13 10:24:31;;;;;;;2.38;1.55;;;3.60;99.90;;;;;;5113045;28;20039;-81
2024/01/13 10:26:57;;;;;;;1.60;1.52;;;3.60;99.90;;;;;;5110170;28;20038;-82
2024/01/13 10:29:23;;;;;;;;;;;3.70;99.90;;;;;;5093905;28;20051;-84
2024/01/13 10:31:52;;;;;;;1.42;1.33;;;3.70;99.90;;;;;;5109936;28;19919;-83
2024/01/13 10:34:21;;;;;;;1.75;1.67;;;3.70;99.90;;;;;;5110020;28;20044;-82
2024/01/13 10:36:47;;;;;;;3.20;1.48;;;3.80;99.90;;;;;;5107203;28;20112;-79
2024/01/13 10:39:14;;;;;;;3.20;2.92;;;3.70;99.90;;;;;;5112755;28;20043;-83
2024/01/13 10:41:46;;;;;;;2.88;2.78;;;3.80;99.90;;;;;;5112649;28;20039;-82
2024/01/13 10:44:16;;;;;;;0.60;0.60;;;3.80;99.90;;;;;;5121783;27;20055;-80
2024/01/13 10:46:49;;;;;;;2.78;2.58;;;3.70;99.90;;;;;;5093992;28;20119;-83
2024/01/13 10:49:29;;;;;;;0.88;0.88;;;3.80;99.90;;;;;;5116909;27;20058;-82
2024/01/13 10:51:58;;;;;;;1.48;1.42;;;3.70;99.90;;;;;;5116898;27;20084;-80
2024/01/13 10:54:27;;;;;;;1.00;1.00;;;3.70;99.90;;;;;;5102356;28;20150;-81
2024/01/13 10:56:53;;;;;;;1.55;1.45;;;3.70;99.90;;;;;;5113485;28;20051;-80
2024/01/13 10:59:19;;;;;;;2.45;2.35;;;3.70;99.90;;;;;;5115838;28;20115;-79
2024/01/13 11:01:47;;;;;;;0.82;0.82;;;3.90;99.90;;;;;;5097410;28;20105;-83
2024/01/13 11:04:14;;;;;;;2.67;2.03;;;3.80;99.90;;;;;;5118910;27;20051;-82
2024/01/13 11:06:41;;;;;;;3.17;2.25;;;3.80;99.90;;;;;;5096776;28;20052;-84
2024/01/13 11:09:10;;;;;;;2.25;2.15;;;3.80;99.90;;;;;;5115738;28;20039;-80
2024/01/13 11:11:43;;;;;;;1.00;1.00;;;3.90;99.90;;;;;;5118790;28;20047;-84
2024/01/13 11:14:28;;;;;;;1.58;1.50;;;3.90;99.90;;;;;;5112911;27;20492;-82
2024/01/13 11:16:56;;;;;;;0.70;0.70;;;3.80;99.90;;;;;;5117095;27;20051;-83
2024/01/13 11:19:23;;;;;;;2.45;1.10;;;4.20;99.90;;;;;;5097268;27;20380;-82
2024/01/13 11:21:49;;;;;;;1.13;1.13;;;3.90;99.90;;;;;;5114329;28;20043;-84
2024/01/13 11:24:15;;;;;;;2.28;2.15;;;3.90;99.90;;;;;;5077377;28;20075;-81
2024/01/13 11:26:43;;;;;;;1.05;1.05;;;3.90;99.90;;;;;;5102756;28;20046;-82
2024/01/13 11:29:16;;;;;;;0.40;0.40;;;3.90;99.90;;;;;;5113185;28;20038;-82
2024/01/13 11:31:43;;;;;;;0.70;0.70;;;3.90;99.90;;;;;;5096313;28;20038;-81
2024/01/13 11:34:11;;;;;;;0.77;0.77;;;4.00;99.90;;;;;;5096090;28;20392;-83
2024/01/13 11:36:44;;;;;;;1.95;1.08;;;4.00;99.90;;;;;;5087524;27;20173;-80
2024/01/13 11:39:11;;;;;;;2.20;2.13;;;4.00;99.90;;;;;;5096322;28;20201;-80
2024/01/13 11:41:47;;;;;;;6.93;2.10;;;4.00;99.90;;;;;;5114294;27;20054;-82
2024/01/13 11:44:24;;;;;;;0.85;0.85;;;4.10;99.90;;;;;;5101445;28;20039;-82
2024/01/13 11:47:05;;;;;;;1.02;1.02;;;4.10;99.90;;;;;;5116257;27;20429;-80
2024/01/13 11:49:38;;;;;;;0.63;0.63;;;4.10;99.90;;;;;;5109020;28;20096;-82
2024/01/13 11:52:09;;;;;;;0.70;0.70;;;4.10;99.90;;;;;;5113537;28;20073;-81
2024/01/13 11:54:36;;;;;;;0.80;0.80;;;4.30;99.90;;;;;;5096951;28;20040;-83
2024/01/13 11:57:13;;;;;;;0.60;0.60;;;4.10;99.90;;;;;;5081643;27;20104;-80
2024/01/13 11:59:39;;;;;;;;;;;4.10;99.90;;;;;;5116887;27;20118;-80
2024/01/13 12:02:06;;;;;;;0.82;0.77;;;4.20;99.90;;;;;;5115017;28;19923;-80
2024/01/13 12:04:34;;;;;;;1.42;1.35;;;4.20;99.90;;;;;;5114514;28;20055;-79
2024/01/13 12:07:00;;;;;;;0.60;0.60;;;4.20;99.90;;;;;;5078099;28;20096;-79
2024/01/13 12:09:27;;;;;;;0.60;0.60;;;4.10;99.90;;;;;;5112567;28;20122;-82
2024/01/13 12:11:57;;;;;;;0.60;0.60;;;4.20;99.90;;;;;;5077442;28;20048;-81
2024/01/13 12:14:35;;;;;;;0.60;0.60;;;4.20;99.90;;;;;;5097113;28;20072;-79
2024/01/13 12:17:03;;;;;;;1.83;1.77;;;4.20;99.90;;;;;;5112624;28;20237;-84
2024/01/13 12:19:36;;;;;;;1.33;1.23;;;4.30;99.90;;;;;;5079121;28;20047;-80
2024/01/13 12:22:06;;;;;;;0.70;0.70;;;4.30;99.90;;;;;;5114209;28;20055;-79
2024/01/13 12:24:33;;;;;;;0.50;0.50;;;4.30;99.90;;;;;;5094493;28;20047;-81
2024/01/13 12:27:00;;;;;;;1.25;1.15;;;4.30;99.90;;;;;;5112740;28;20039;-84
2024/01/13 12:29:35;;;;;;;0.70;0.70;;;4.30;99.90;;;;;;5097201;27;20036;-81
2024/01/13 12:32:03;;;;;;;0.47;0.47;;;3.10;99.90;;;;;;5117155;27;20062;-78
2024/01/13 12:34:31;;;;;;;0.65;0.65;;;4.40;99.90;;;;;;5096224;28;20057;-79
2024/01/13 12:36:57;;;;;;;0.50;0.50;;;4.40;99.90;;;;;;5112554;28;20123;-83
2024/01/13 12:39:24;;;;;;;0.68;0.68;;;4.40;99.90;;;;;;5114695;28;20051;-82
2024/01/13 12:41:51;;;;;;;0.70;0.70;;;5.30;99.90;;;;;;5115880;28;20040;-80
2024/01/13 12:44:17;;;;;;;0.95;0.95;;;4.50;99.90;;;;;;5111704;28;20453;-81
2024/01/13 12:46:43;;;;;;;0.60;0.60;;;4.60;99.90;;;;;;5094441;28;20123;-78
2024/01/13 12:49:18;;;;;;;0.65;0.65;;;4.60;99.90;;;;;;5094151;28;20105;-78
2024/01/13 12:51:46;;;;;;;0.60;0.60;;;4.60;99.90;;;;;;5098887;27;20045;-81
2024/01/13 12:54:15;;;;;;;0.70;0.70;;;4.70;99.90;;;;;;5102470;28;20447;-78
2024/01/13 12:56:43;;;;;;;0.68;0.68;;;4.80;99.90;;;;;;5111258;28;20083;-81